sensor_id;sensor_type;location;lat;lon;timestamp;P1;durP1;ratioP1;P2;durP2;ratioP2
9160;SDS011;4615;51.340;8.288;2023-06-19T00:00:17;6.72;;;6.22;;
9160;SDS011;4615;51.340;8.288;2023-06-19T00:02:43;6.53;;;5.95;;
9160;SDS011;4615;51.340;8.288;2023-06-19T00:05:12;6.50;;;6.00;;
9160;SDS011;4615;51.340;8.288;2023-06-19T00:07:38;6.30;;;5.80;;
9160;SDS011;4615;51.340;8.288;2023-06-19T00:10:05;7.80;;;6.30;;
9160;SDS011;4615;51.340;8.288;2023-06-19T00:12:32;6.78;;;6.28;;
9160;SDS011;4615;51.340;8.288;2023-06-19T00:14:58;7.07;;;6.47;;
9160;SDS011;4615;51.340;8.288;2023-06-19T00:17:26;7.47;;;6.77;;
9160;SDS011;4615;51.340;8.288;2023-06-19T00:19:52;7.13;;;6.53;;
9160;SDS011;4615;51.340;8.288;2023-06-19T00:22:19;7.15;;;6.55;;
9160;SDS011;4615;51.340;8.288;2023-06-19T00:24:46;7.23;;;6.63;;
9160;SDS011;4615;51.340;8.288;2023-06-19T00:27:12;6.40;;;5.90;;
9160;SDS011;4615;51.340;8.288;2023-06-19T00:29:38;6.47;;;5.93;;
9160;SDS011;4615;51.340;8.288;2023-06-19T00:32:05;6.70;;;6.00;;
9160;SDS011;4615;51.340;8.288;2023-06-19T00:34:33;6.25;;;5.65;;
9160;SDS011;4615;51.340;8.288;2023-06-19T00:36:59;6.53;;;5.95;;
9160;SDS011;4615;51.340;8.288;2023-06-19T00:39:26;6.90;;;6.30;;
9160;SDS011;4615;51.340;8.288;2023-06-19T00:41:53;6.80;;;5.75;;
9160;SDS011;4615;51.340;8.288;2023-06-19T00:44:19;6.65;;;6.05;;
9160;SDS011;4615;51.340;8.288;2023-06-19T00:46:45;6.65;;;6.05;;
9160;SDS011;4615;51.340;8.288;2023-06-19T00:49:12;6.82;;;6.10;;
9160;SDS011;4615;51.340;8.288;2023-06-19T00:51:41;7.03;;;6.50;;
9160;SDS011;4615;51.340;8.288;2023-06-19T00:54:07;7.10;;;6.55;;
9160;SDS011;4615;51.340;8.288;2023-06-19T00:56:33;7.30;;;6.70;;
9160;SDS011;4615;51.340;8.288;2023-06-19T00:59:05;7.65;;;6.95;;
9160;SDS011;4615;51.340;8.288;2023-06-19T01:01:32;6.70;;;6.18;;
9160;SDS011;4615;51.340;8.288;2023-06-19T01:03:58;7.00;;;6.35;;
9160;SDS011;4615;51.340;8.288;2023-06-19T01:06:27;7.57;;;6.88;;
9160;SDS011;4615;51.340;8.288;2023-06-19T01:08:56;7.47;;;6.78;;
9160;SDS011;4615;51.340;8.288;2023-06-19T01:11:25;7.75;;;7.07;;
9160;SDS011;4615;51.340;8.288;2023-06-19T01:13:54;8.02;;;7.32;;
9160;SDS011;4615;51.340;8.288;2023-06-19T01:16:23;7.32;;;6.80;;
9160;SDS011;4615;51.340;8.288;2023-06-19T01:18:49;7.30;;;6.78;;
9160;SDS011;4615;51.340;8.288;2023-06-19T01:21:16;7.47;;;6.87;;
9160;SDS011;4615;51.340;8.288;2023-06-19T01:23:45;7.20;;;6.60;;
9160;SDS011;4615;51.340;8.288;2023-06-19T01:26:12;8.27;;;7.57;;
9160;SDS011;4615;51.340;8.288;2023-06-19T01:28:39;7.85;;;7.13;;
9160;SDS011;4615;51.340;8.288;2023-06-19T01:31:08;7.23;;;6.63;;
9160;SDS011;4615;51.340;8.288;2023-06-19T01:33:37;7.60;;;6.90;;
9160;SDS011;4615;51.340;8.288;2023-06-19T01:36:04;8.07;;;7.30;;
9160;SDS011;4615;51.340;8.288;2023-06-19T01:38:31;7.70;;;7.10;;
9160;SDS011;4615;51.340;8.288;2023-06-19T01:40:59;7.85;;;7.13;;
9160;SDS011;4615;51.340;8.288;2023-06-19T01:43:26;7.60;;;6.90;;
9160;SDS011;4615;51.340;8.288;2023-06-19T01:45:53;7.63;;;6.95;;
9160;SDS011;4615;51.340;8.288;2023-06-19T01:48:19;8.80;;;8.00;;
9160;SDS011;4615;51.340;8.288;2023-06-19T01:50:46;7.82;;;7.22;;
9160;SDS011;4615;51.340;8.288;2023-06-19T01:53:12;8.15;;;7.55;;
9160;SDS011;4615;51.340;8.288;2023-06-19T01:55:39;7.85;;;7.25;;
9160;SDS011;4615;51.340;8.288;2023-06-19T01:58:07;8.40;;;7.70;;
9160;SDS011;4615;51.340;8.288;2023-06-19T02:00:33;8.30;;;7.70;;
9160;SDS011;4615;51.340;8.288;2023-06-19T02:03:00;8.38;;;7.68;;
9160;SDS011;4615;51.340;8.288;2023-06-19T02:05:27;9.47;;;8.60;;
9160;SDS011;4615;51.340;8.288;2023-06-19T02:07:53;9.40;;;8.60;;
9160;SDS011;4615;51.340;8.288;2023-06-19T02:10:19;9.27;;;8.48;;
9160;SDS011;4615;51.340;8.288;2023-06-19T02:12:46;8.80;;;8.10;;
9160;SDS011;4615;51.340;8.288;2023-06-19T02:15:14;7.80;;;7.20;;
9160;SDS011;4615;51.340;8.288;2023-06-19T02:17:40;7.43;;;6.82;;
9160;SDS011;4615;51.340;8.288;2023-06-19T02:20:07;7.70;;;7.03;;
9160;SDS011;4615;51.340;8.288;2023-06-19T02:22:37;7.23;;;6.70;;
9160;SDS011;4615;51.340;8.288;2023-06-19T02:25:03;7.37;;;6.87;;
9160;SDS011;4615;51.340;8.288;2023-06-19T02:27:30;7.93;;;7.22;;
9160;SDS011;4615;51.340;8.288;2023-06-19T02:29:56;7.65;;;7.05;;
9160;SDS011;4615;51.340;8.288;2023-06-19T02:32:24;7.60;;;6.97;;
9160;SDS011;4615;51.340;8.288;2023-06-19T02:34:53;7.70;;;7.10;;
9160;SDS011;4615;51.340;8.288;2023-06-19T02:37:19;7.75;;;7.05;;
9160;SDS011;4615;51.340;8.288;2023-06-19T02:39:46;7.82;;;7.22;;
9160;SDS011;4615;51.340;8.288;2023-06-19T02:42:12;7.83;;;7.10;;
9160;SDS011;4615;51.340;8.288;2023-06-19T02:44:39;8.40;;;7.55;;
9160;SDS011;4615;51.340;8.288;2023-06-19T02:47:07;7.53;;;6.93;;
9160;SDS011;4615;51.340;8.288;2023-06-19T02:49:35;8.07;;;7.37;;
9160;SDS011;4615;51.340;8.288;2023-06-19T02:52:01;7.75;;;7.13;;
9160;SDS011;4615;51.340;8.288;2023-06-19T02:54:28;7.87;;;7.27;;
9160;SDS011;4615;51.340;8.288;2023-06-19T02:56:54;7.20;;;6.70;;
9160;SDS011;4615;51.340;8.288;2023-06-19T02:59:20;7.85;;;7.15;;
9160;SDS011;4615;51.340;8.288;2023-06-19T03:01:47;7.30;;;6.70;;
9160;SDS011;4615;51.340;8.288;2023-06-19T03:04:13;8.30;;;7.60;;
9160;SDS011;4615;51.340;8.288;2023-06-19T03:06:41;7.82;;;7.22;;
9160;SDS011;4615;51.340;8.288;2023-06-19T03:09:08;9.30;;;8.40;;
9160;SDS011;4615;51.340;8.288;2023-06-19T03:11:37;9.07;;;8.18;;
9160;SDS011;4615;51.340;8.288;2023-06-19T03:14:04;8.05;;;7.35;;
9160;SDS011;4615;51.340;8.288;2023-06-19T03:16:32;9.10;;;8.20;;
9160;SDS011;4615;51.340;8.288;2023-06-19T03:18:58;8.35;;;7.65;;
9160;SDS011;4615;51.340;8.288;2023-06-19T03:21:25;8.18;;;7.47;;
9160;SDS011;4615;51.340;8.288;2023-06-19T03:23:53;7.70;;;7.10;;
9160;SDS011;4615;51.340;8.288;2023-06-19T03:26:19;8.45;;;7.65;;
9160;SDS011;4615;51.340;8.288;2023-06-19T03:28:46;7.88;;;7.28;;
9160;SDS011;4615;51.340;8.288;2023-06-19T03:31:12;8.35;;;7.60;;
9160;SDS011;4615;51.340;8.288;2023-06-19T03:33:39;8.25;;;7.55;;
9160;SDS011;4615;51.340;8.288;2023-06-19T03:36:05;8.27;;;7.57;;
9160;SDS011;4615;51.340;8.288;2023-06-19T03:38:31;7.43;;;6.82;;
9160;SDS011;4615;51.340;8.288;2023-06-19T03:40:59;8.25;;;7.55;;
9160;SDS011;4615;51.340;8.288;2023-06-19T03:43:26;8.25;;;7.55;;
9160;SDS011;4615;51.340;8.288;2023-06-19T03:45:52;8.15;;;7.45;;
9160;SDS011;4615;51.340;8.288;2023-06-19T03:48:18;8.27;;;7.57;;
9160;SDS011;4615;51.340;8.288;2023-06-19T03:50:45;8.07;;;7.28;;
9160;SDS011;4615;51.340;8.288;2023-06-19T03:53:11;8.30;;;7.60;;
9160;SDS011;4615;51.340;8.288;2023-06-19T03:55:38;8.23;;;7.53;;
9160;SDS011;4615;51.340;8.288;2023-06-19T03:58:05;8.13;;;7.40;;
9160;SDS011;4615;51.340;8.288;2023-06-19T04:00:32;8.23;;;7.60;;
9160;SDS011;4615;51.340;8.288;2023-06-19T04:02:58;8.50;;;7.75;;
9160;SDS011;4615;51.340;8.288;2023-06-19T04:05:25;7.07;;;6.47;;
9160;SDS011;4615;51.340;8.288;2023-06-19T04:07:51;7.68;;;6.97;;
9160;SDS011;4615;51.340;8.288;2023-06-19T04:10:17;6.72;;;6.22;;
9160;SDS011;4615;51.340;8.288;2023-06-19T04:12:44;6.38;;;5.88;;
9160;SDS011;4615;51.340;8.288;2023-06-19T04:15:12;6.60;;;6.10;;
9160;SDS011;4615;51.340;8.288;2023-06-19T04:17:39;6.83;;;6.13;;
9160;SDS011;4615;51.340;8.288;2023-06-19T04:20:05;6.78;;;6.18;;
9160;SDS011;4615;51.340;8.288;2023-06-19T04:22:35;7.18;;;6.47;;
9160;SDS011;4615;51.340;8.288;2023-06-19T04:25:02;7.00;;;6.30;;
9160;SDS011;4615;51.340;8.288;2023-06-19T04:27:29;7.00;;;6.40;;
9160;SDS011;4615;51.340;8.288;2023-06-19T04:29:55;7.72;;;6.20;;
9160;SDS011;4615;51.340;8.288;2023-06-19T04:32:24;6.63;;;6.13;;
9160;SDS011;4615;51.340;8.288;2023-06-19T04:34:50;6.85;;;6.15;;
9160;SDS011;4615;51.340;8.288;2023-06-19T04:37:17;6.65;;;6.10;;
9160;SDS011;4615;51.340;8.288;2023-06-19T04:39:44;6.65;;;6.10;;
9160;SDS011;4615;51.340;8.288;2023-06-19T04:42:12;6.60;;;6.10;;
9160;SDS011;4615;51.340;8.288;2023-06-19T04:44:44;7.22;;;6.53;;
9160;SDS011;4615;51.340;8.288;2023-06-19T04:47:10;6.95;;;6.25;;
9160;SDS011;4615;51.340;8.288;2023-06-19T04:49:38;6.53;;;5.95;;
9160;SDS011;4615;51.340;8.288;2023-06-19T04:52:05;6.75;;;6.15;;
9160;SDS011;4615;51.340;8.288;2023-06-19T04:54:31;6.72;;;6.13;;
9160;SDS011;4615;51.340;8.288;2023-06-19T04:56:58;7.40;;;6.45;;
9160;SDS011;4615;51.340;8.288;2023-06-19T04:59:25;7.30;;;6.60;;
9160;SDS011;4615;51.340;8.288;2023-06-19T05:01:51;6.95;;;6.35;;
9160;SDS011;4615;51.340;8.288;2023-06-19T05:04:19;8.47;;;6.40;;
9160;SDS011;4615;51.340;8.288;2023-06-19T05:06:46;6.65;;;6.05;;
9160;SDS011;4615;51.340;8.288;2023-06-19T05:09:13;7.43;;;6.73;;
9160;SDS011;4615;51.340;8.288;2023-06-19T05:11:39;6.88;;;6.20;;
9160;SDS011;4615;51.340;8.288;2023-06-19T05:14:06;6.80;;;6.30;;
9160;SDS011;4615;51.340;8.288;2023-06-19T05:16:33;7.65;;;6.93;;
9160;SDS011;4615;51.340;8.288;2023-06-19T05:18:59;6.93;;;6.40;;
9160;SDS011;4615;51.340;8.288;2023-06-19T05:21:26;6.38;;;5.78;;
9160;SDS011;4615;51.340;8.288;2023-06-19T05:23:53;6.90;;;6.20;;
9160;SDS011;4615;51.340;8.288;2023-06-19T05:26:20;7.43;;;6.50;;
9160;SDS011;4615;51.340;8.288;2023-06-19T05:28:47;7.13;;;6.50;;
9160;SDS011;4615;51.340;8.288;2023-06-19T05:31:13;6.50;;;6.00;;
9160;SDS011;4615;51.340;8.288;2023-06-19T05:33:40;6.80;;;6.20;;
9160;SDS011;4615;51.340;8.288;2023-06-19T05:36:08;6.70;;;6.10;;
9160;SDS011;4615;51.340;8.288;2023-06-19T05:38:34;7.03;;;6.40;;
9160;SDS011;4615;51.340;8.288;2023-06-19T05:41:02;6.55;;;6.00;;
9160;SDS011;4615;51.340;8.288;2023-06-19T05:43:29;6.45;;;5.88;;
9160;SDS011;4615;51.340;8.288;2023-06-19T05:45:56;6.53;;;5.93;;
9160;SDS011;4615;51.340;8.288;2023-06-19T05:48:23;6.53;;;6.03;;
9160;SDS011;4615;51.340;8.288;2023-06-19T05:50:52;6.57;;;6.00;;
9160;SDS011;4615;51.340;8.288;2023-06-19T05:53:19;6.32;;;5.75;;
9160;SDS011;4615;51.340;8.288;2023-06-19T05:55:45;6.40;;;5.80;;
9160;SDS011;4615;51.340;8.288;2023-06-19T05:58:13;6.50;;;5.90;;
9160;SDS011;4615;51.340;8.288;2023-06-19T06:00:39;6.43;;;5.93;;
9160;SDS011;4615;51.340;8.288;2023-06-19T06:03:06;6.68;;;6.00;;
9160;SDS011;4615;51.340;8.288;2023-06-19T06:05:32;6.10;;;5.60;;
9160;SDS011;4615;51.340;8.288;2023-06-19T06:07:58;6.65;;;6.15;;
9160;SDS011;4615;51.340;8.288;2023-06-19T06:10:25;6.43;;;5.72;;
9160;SDS011;4615;51.340;8.288;2023-06-19T06:12:51;6.30;;;5.65;;
9160;SDS011;4615;51.340;8.288;2023-06-19T06:15:19;6.57;;;5.97;;
9160;SDS011;4615;51.340;8.288;2023-06-19T06:17:45;7.00;;;5.68;;
9160;SDS011;4615;51.340;8.288;2023-06-19T06:20:12;6.80;;;6.20;;
9160;SDS011;4615;51.340;8.288;2023-06-19T06:22:38;6.47;;;5.88;;
9160;SDS011;4615;51.340;8.288;2023-06-19T06:25:05;6.63;;;6.03;;
9160;SDS011;4615;51.340;8.288;2023-06-19T06:27:32;6.60;;;6.10;;
9160;SDS011;4615;51.340;8.288;2023-06-19T06:29:58;6.60;;;6.10;;
9160;SDS011;4615;51.340;8.288;2023-06-19T06:32:27;6.40;;;5.87;;
9160;SDS011;4615;51.340;8.288;2023-06-19T06:34:54;6.82;;;6.22;;
9160;SDS011;4615;51.340;8.288;2023-06-19T06:37:20;6.75;;;6.15;;
9160;SDS011;4615;51.340;8.288;2023-06-19T06:39:47;7.03;;;6.43;;
9160;SDS011;4615;51.340;8.288;2023-06-19T06:42:14;6.60;;;6.00;;
9160;SDS011;4615;51.340;8.288;2023-06-19T06:44:40;6.90;;;6.20;;
9160;SDS011;4615;51.340;8.288;2023-06-19T06:47:07;7.18;;;6.50;;
9160;SDS011;4615;51.340;8.288;2023-06-19T06:49:34;6.47;;;5.97;;
9160;SDS011;4615;51.340;8.288;2023-06-19T06:52:01;6.70;;;6.10;;
9160;SDS011;4615;51.340;8.288;2023-06-19T06:54:28;6.70;;;6.10;;
9160;SDS011;4615;51.340;8.288;2023-06-19T06:56:54;6.43;;;5.93;;
9160;SDS011;4615;51.340;8.288;2023-06-19T06:59:23;6.78;;;6.18;;
9160;SDS011;4615;51.340;8.288;2023-06-19T07:01:49;6.37;;;5.80;;
9160;SDS011;4615;51.340;8.288;2023-06-19T07:04:16;6.28;;;5.78;;
9160;SDS011;4615;51.340;8.288;2023-06-19T07:06:44;6.60;;;6.03;;
9160;SDS011;4615;51.340;8.288;2023-06-19T07:09:11;7.03;;;6.30;;
9160;SDS011;4615;51.340;8.288;2023-06-19T07:11:37;7.40;;;6.50;;
9160;SDS011;4615;51.340;8.288;2023-06-19T07:14:03;6.95;;;6.25;;
9160;SDS011;4615;51.340;8.288;2023-06-19T07:16:30;6.93;;;6.40;;
9160;SDS011;4615;51.340;8.288;2023-06-19T07:18:56;7.10;;;6.40;;
9160;SDS011;4615;51.340;8.288;2023-06-19T07:21:23;7.20;;;6.47;;
9160;SDS011;4615;51.340;8.288;2023-06-19T07:23:50;7.55;;;6.78;;
9160;SDS011;4615;51.340;8.288;2023-06-19T07:26:17;6.97;;;6.47;;
9160;SDS011;4615;51.340;8.288;2023-06-19T07:28:43;6.90;;;6.20;;
9160;SDS011;4615;51.340;8.288;2023-06-19T07:31:10;6.60;;;5.90;;
9160;SDS011;4615;51.340;8.288;2023-06-19T07:33:36;6.40;;;5.80;;
9160;SDS011;4615;51.340;8.288;2023-06-19T07:36:03;6.40;;;5.70;;
9160;SDS011;4615;51.340;8.288;2023-06-19T07:38:29;5.67;;;5.27;;
9160;SDS011;4615;51.340;8.288;2023-06-19T07:40:57;5.82;;;5.32;;
9160;SDS011;4615;51.340;8.288;2023-06-19T07:43:23;5.70;;;5.20;;
9160;SDS011;4615;51.340;8.288;2023-06-19T07:45:50;5.40;;;5.00;;
9160;SDS011;4615;51.340;8.288;2023-06-19T07:48:16;5.53;;;5.03;;
9160;SDS011;4615;51.340;8.288;2023-06-19T07:50:43;5.53;;;5.03;;
9160;SDS011;4615;51.340;8.288;2023-06-19T07:53:12;5.30;;;4.90;;
9160;SDS011;4615;51.340;8.288;2023-06-19T07:55:38;5.60;;;5.10;;
9160;SDS011;4615;51.340;8.288;2023-06-19T07:58:06;5.40;;;5.00;;
9160;SDS011;4615;51.340;8.288;2023-06-19T08:00:32;5.10;;;4.70;;
9160;SDS011;4615;51.340;8.288;2023-06-19T08:02:59;5.68;;;4.82;;
9160;SDS011;4615;51.340;8.288;2023-06-19T08:05:25;5.10;;;4.60;;
9160;SDS011;4615;51.340;8.288;2023-06-19T08:07:51;5.15;;;4.70;;
9160;SDS011;4615;51.340;8.288;2023-06-19T08:10:18;4.82;;;4.43;;
9160;SDS011;4615;51.340;8.288;2023-06-19T08:12:44;4.93;;;4.53;;
9160;SDS011;4615;51.340;8.288;2023-06-19T08:15:12;4.90;;;4.50;;
9160;SDS011;4615;51.340;8.288;2023-06-19T08:17:39;5.10;;;4.70;;
9160;SDS011;4615;51.340;8.288;2023-06-19T08:20:06;4.90;;;4.50;;
9160;SDS011;4615;51.340;8.288;2023-06-19T08:22:33;5.10;;;4.70;;
9160;SDS011;4615;51.340;8.288;2023-06-19T08:24:59;5.00;;;4.55;;
9160;SDS011;4615;51.340;8.288;2023-06-19T08:27:26;5.00;;;4.60;;
9160;SDS011;4615;51.340;8.288;2023-06-19T08:29:52;4.97;;;4.47;;
9160;SDS011;4615;51.340;8.288;2023-06-19T08:32:20;4.38;;;4.03;;
9160;SDS011;4615;51.340;8.288;2023-06-19T08:34:46;4.90;;;4.50;;
9160;SDS011;4615;51.340;8.288;2023-06-19T08:37:13;4.18;;;3.88;;
9160;SDS011;4615;51.340;8.288;2023-06-19T08:39:39;4.18;;;3.88;;
9160;SDS011;4615;51.340;8.288;2023-06-19T08:42:06;4.37;;;3.80;;
9160;SDS011;4615;51.340;8.288;2023-06-19T08:44:32;4.07;;;3.70;;
9160;SDS011;4615;51.340;8.288;2023-06-19T08:46:59;4.05;;;3.75;;
9160;SDS011;4615;51.340;8.288;2023-06-19T08:49:27;4.00;;;3.60;;
9160;SDS011;4615;51.340;8.288;2023-06-19T08:51:55;3.70;;;3.40;;
9160;SDS011;4615;51.340;8.288;2023-06-19T08:54:21;3.50;;;3.20;;
9160;SDS011;4615;51.340;8.288;2023-06-19T08:56:48;3.60;;;3.30;;
9160;SDS011;4615;51.340;8.288;2023-06-19T08:59:14;3.50;;;3.20;;
9160;SDS011;4615;51.340;8.288;2023-06-19T09:01:46;3.80;;;3.50;;
9160;SDS011;4615;51.340;8.288;2023-06-19T09:04:17;3.85;;;3.45;;
9160;SDS011;4615;51.340;8.288;2023-06-19T09:06:48;3.90;;;3.50;;
9160;SDS011;4615;51.340;8.288;2023-06-19T09:09:15;3.30;;;3.00;;
9160;SDS011;4615;51.340;8.288;2023-06-19T09:11:41;3.25;;;2.90;;
9160;SDS011;4615;51.340;8.288;2023-06-19T09:14:09;3.33;;;2.95;;
9160;SDS011;4615;51.340;8.288;2023-06-19T09:16:36;3.40;;;3.10;;
9160;SDS011;4615;51.340;8.288;2023-06-19T09:19:03;3.55;;;3.05;;
9160;SDS011;4615;51.340;8.288;2023-06-19T09:21:30;3.17;;;2.90;;
9160;SDS011;4615;51.340;8.288;2023-06-19T09:24:03;3.20;;;2.90;;
9160;SDS011;4615;51.340;8.288;2023-06-19T09:26:29;3.20;;;2.80;;
9160;SDS011;4615;51.340;8.288;2023-06-19T09:28:55;3.13;;;2.83;;
9160;SDS011;4615;51.340;8.288;2023-06-19T09:31:31;3.28;;;2.97;;
9160;SDS011;4615;51.340;8.288;2023-06-19T09:33:58;3.33;;;3.03;;
9160;SDS011;4615;51.340;8.288;2023-06-19T09:36:24;3.10;;;2.80;;
9160;SDS011;4615;51.340;8.288;2023-06-19T09:38:52;3.20;;;2.90;;
9160;SDS011;4615;51.340;8.288;2023-06-19T09:41:22;2.92;;;2.70;;
9160;SDS011;4615;51.340;8.288;2023-06-19T09:43:50;3.50;;;2.60;;
9160;SDS011;4615;51.340;8.288;2023-06-19T09:46:17;2.85;;;2.50;;
9160;SDS011;4615;51.340;8.288;2023-06-19T09:48:45;2.80;;;2.60;;
9160;SDS011;4615;51.340;8.288;2023-06-19T09:51:14;3.05;;;2.25;;
9160;SDS011;4615;51.340;8.288;2023-06-19T09:53:43;2.90;;;2.60;;
9160;SDS011;4615;51.340;8.288;2023-06-19T09:56:11;3.08;;;2.47;;
9160;SDS011;4615;51.340;8.288;2023-06-19T09:58:39;2.80;;;2.30;;
9160;SDS011;4615;51.340;8.288;2023-06-19T10:01:06;3.53;;;2.38;;
9160;SDS011;4615;51.340;8.288;2023-06-19T10:03:33;2.60;;;2.40;;
9160;SDS011;4615;51.340;8.288;2023-06-19T10:06:00;2.50;;;2.30;;
9160;SDS011;4615;51.340;8.288;2023-06-19T10:08:27;3.38;;;2.40;;
9160;SDS011;4615;51.340;8.288;2023-06-19T10:10:54;2.58;;;2.38;;
9160;SDS011;4615;51.340;8.288;2023-06-19T10:13:21;2.80;;;2.47;;
9160;SDS011;4615;51.340;8.288;2023-06-19T10:15:48;2.92;;;2.42;;
9160;SDS011;4615;51.340;8.288;2023-06-19T10:18:15;2.60;;;2.40;;
9160;SDS011;4615;51.340;8.288;2023-06-19T10:20:42;2.85;;;2.65;;
9160;SDS011;4615;51.340;8.288;2023-06-19T10:23:10;3.80;;;2.70;;
9160;SDS011;4615;51.340;8.288;2023-06-19T10:25:37;2.60;;;2.40;;
9160;SDS011;4615;51.340;8.288;2023-06-19T10:28:04;2.40;;;2.20;;
9160;SDS011;4615;51.340;8.288;2023-06-19T10:30:32;2.83;;;2.50;;
9160;SDS011;4615;51.340;8.288;2023-06-19T10:33:00;3.03;;;2.72;;
9160;SDS011;4615;51.340;8.288;2023-06-19T10:35:29;2.60;;;2.40;;
9160;SDS011;4615;51.340;8.288;2023-06-19T10:37:55;2.80;;;2.60;;
9160;SDS011;4615;51.340;8.288;2023-06-19T10:40:22;3.10;;;2.38;;
9160;SDS011;4615;51.340;8.288;2023-06-19T10:42:48;2.92;;;2.63;;
9160;SDS011;4615;51.340;8.288;2023-06-19T10:45:15;2.65;;;2.45;;
9160;SDS011;4615;51.340;8.288;2023-06-19T10:47:45;3.53;;;2.72;;
9160;SDS011;4615;51.340;8.288;2023-06-19T10:50:13;3.23;;;2.70;;
9160;SDS011;4615;51.340;8.288;2023-06-19T10:52:40;2.88;;;2.67;;
9160;SDS011;4615;51.340;8.288;2023-06-19T10:55:08;3.55;;;2.80;;
9160;SDS011;4615;51.340;8.288;2023-06-19T10:57:35;2.80;;;2.60;;
9160;SDS011;4615;51.340;8.288;2023-06-19T11:00:01;2.97;;;2.75;;
9160;SDS011;4615;51.340;8.288;2023-06-19T11:02:35;3.03;;;2.72;;
9160;SDS011;4615;51.340;8.288;2023-06-19T11:05:02;2.97;;;2.70;;
9160;SDS011;4615;51.340;8.288;2023-06-19T11:07:31;4.53;;;2.60;;
9160;SDS011;4615;51.340;8.288;2023-06-19T11:09:58;2.78;;;2.47;;
9160;SDS011;4615;51.340;8.288;2023-06-19T11:12:24;3.37;;;2.73;;
9160;SDS011;4615;51.340;8.288;2023-06-19T11:14:51;2.90;;;2.60;;
9160;SDS011;4615;51.340;8.288;2023-06-19T11:17:17;2.60;;;2.40;;
9160;SDS011;4615;51.340;8.288;2023-06-19T11:19:46;2.70;;;2.50;;
9160;SDS011;4615;51.340;8.288;2023-06-19T11:22:12;3.10;;;2.70;;
9160;SDS011;4615;51.340;8.288;2023-06-19T11:24:44;2.70;;;2.50;;
9160;SDS011;4615;51.340;8.288;2023-06-19T11:27:17;2.60;;;2.40;;
9160;SDS011;4615;51.340;8.288;2023-06-19T11:29:44;3.05;;;2.47;;
9160;SDS011;4615;51.340;8.288;2023-06-19T11:32:12;4.13;;;2.80;;
9160;SDS011;4615;51.340;8.288;2023-06-19T11:34:39;3.13;;;2.50;;
9160;SDS011;4615;51.340;8.288;2023-06-19T11:37:11;3.00;;;2.70;;
9160;SDS011;4615;51.340;8.288;2023-06-19T11:39:37;3.00;;;2.70;;
9160;SDS011;4615;51.340;8.288;2023-06-19T11:42:06;2.22;;;2.10;;
9160;SDS011;4615;51.340;8.288;2023-06-19T11:44:32;2.50;;;2.30;;
9160;SDS011;4615;51.340;8.288;2023-06-19T11:46:59;2.80;;;2.53;;
9160;SDS011;4615;51.340;8.288;2023-06-19T11:49:26;2.78;;;2.58;;
9160;SDS011;4615;51.340;8.288;2023-06-19T11:51:53;2.60;;;2.40;;
9160;SDS011;4615;51.340;8.288;2023-06-19T11:54:19;2.47;;;2.28;;
9160;SDS011;4615;51.340;8.288;2023-06-19T11:56:46;2.70;;;2.50;;
9160;SDS011;4615;51.340;8.288;2023-06-19T11:59:14;2.70;;;2.50;;
9160;SDS011;4615;51.340;8.288;2023-06-19T12:01:41;2.60;;;2.40;;
9160;SDS011;4615;51.340;8.288;2023-06-19T12:04:07;2.63;;;2.40;;
9160;SDS011;4615;51.340;8.288;2023-06-19T12:06:34;2.85;;;2.40;;
9160;SDS011;4615;51.340;8.288;2023-06-19T12:09:02;3.03;;;2.73;;
9160;SDS011;4615;51.340;8.288;2023-06-19T12:11:29;3.38;;;2.60;;
9160;SDS011;4615;51.340;8.288;2023-06-19T12:13:56;3.10;;;2.60;;
9160;SDS011;4615;51.340;8.288;2023-06-19T12:16:24;2.78;;;2.50;;
9160;SDS011;4615;51.340;8.288;2023-06-19T12:18:51;2.80;;;2.60;;
9160;SDS011;4615;51.340;8.288;2023-06-19T12:21:17;3.25;;;2.58;;
9160;SDS011;4615;51.340;8.288;2023-06-19T12:23:44;2.70;;;2.50;;
9160;SDS011;4615;51.340;8.288;2023-06-19T12:26:10;2.87;;;2.67;;
9160;SDS011;4615;51.340;8.288;2023-06-19T12:28:36;3.00;;;2.67;;
9160;SDS011;4615;51.340;8.288;2023-06-19T12:31:03;3.08;;;2.78;;
9160;SDS011;4615;51.340;8.288;2023-06-19T12:33:31;2.95;;;2.58;;
9160;SDS011;4615;51.340;8.288;2023-06-19T12:35:59;3.03;;;2.60;;
9160;SDS011;4615;51.340;8.288;2023-06-19T12:38:26;2.60;;;2.30;;
9160;SDS011;4615;51.340;8.288;2023-06-19T12:40:52;2.60;;;2.40;;
9160;SDS011;4615;51.340;8.288;2023-06-19T12:43:19;2.75;;;2.53;;
9160;SDS011;4615;51.340;8.288;2023-06-19T12:45:45;3.90;;;2.50;;
9160;SDS011;4615;51.340;8.288;2023-06-19T12:48:13;2.70;;;2.45;;
9160;SDS011;4615;51.340;8.288;2023-06-19T12:50:41;2.70;;;2.50;;
9160;SDS011;4615;51.340;8.288;2023-06-19T12:53:08;2.50;;;2.30;;
9160;SDS011;4615;51.340;8.288;2023-06-19T12:55:34;3.03;;;2.63;;
9160;SDS011;4615;51.340;8.288;2023-06-19T12:58:00;3.65;;;2.60;;
9160;SDS011;4615;51.340;8.288;2023-06-19T13:00:27;5.45;;;2.50;;
9160;SDS011;4615;51.340;8.288;2023-06-19T13:02:53;2.75;;;2.50;;
9160;SDS011;4615;51.340;8.288;2023-06-19T13:05:19;2.60;;;2.40;;
9160;SDS011;4615;51.340;8.288;2023-06-19T13:07:47;2.88;;;2.58;;
9160;SDS011;4615;51.340;8.288;2023-06-19T13:10:14;2.90;;;2.70;;
9160;SDS011;4615;51.340;8.288;2023-06-19T13:12:40;3.22;;;2.42;;
9160;SDS011;4615;51.340;8.288;2023-06-19T13:15:07;2.67;;;2.47;;
9160;SDS011;4615;51.340;8.288;2023-06-19T13:17:33;3.87;;;2.70;;
9160;SDS011;4615;51.340;8.288;2023-06-19T13:20:00;3.25;;;2.60;;
9160;SDS011;4615;51.340;8.288;2023-06-19T13:22:26;2.92;;;2.50;;
9160;SDS011;4615;51.340;8.288;2023-06-19T13:24:54;2.60;;;2.40;;
9160;SDS011;4615;51.340;8.288;2023-06-19T13:27:20;4.40;;;2.38;;
9160;SDS011;4615;51.340;8.288;2023-06-19T13:29:47;2.60;;;2.40;;
9160;SDS011;4615;51.340;8.288;2023-06-19T13:32:13;2.30;;;2.10;;
9160;SDS011;4615;51.340;8.288;2023-06-19T13:34:40;3.67;;;2.50;;
9160;SDS011;4615;51.340;8.288;2023-06-19T13:37:06;2.58;;;2.38;;
9160;SDS011;4615;51.340;8.288;2023-06-19T13:39:33;2.30;;;2.20;;
9160;SDS011;4615;51.340;8.288;2023-06-19T13:42:01;3.50;;;2.20;;
9160;SDS011;4615;51.340;8.288;2023-06-19T13:44:27;2.45;;;2.25;;
9160;SDS011;4615;51.340;8.288;2023-06-19T13:46:54;2.35;;;2.15;;
9160;SDS011;4615;51.340;8.288;2023-06-19T13:49:20;4.22;;;2.33;;
9160;SDS011;4615;51.340;8.288;2023-06-19T13:51:47;2.28;;;2.08;;
9160;SDS011;4615;51.340;8.288;2023-06-19T13:54:13;2.53;;;2.33;;
9160;SDS011;4615;51.340;8.288;2023-06-19T13:56:39;2.35;;;2.15;;
9160;SDS011;4615;51.340;8.288;2023-06-19T13:59:08;2.15;;;2.03;;
9160;SDS011;4615;51.340;8.288;2023-06-19T14:01:35;2.40;;;2.08;;
9160;SDS011;4615;51.340;8.288;2023-06-19T14:04:01;3.03;;;2.15;;
9160;SDS011;4615;51.340;8.288;2023-06-19T14:06:27;2.35;;;2.17;;
9160;SDS011;4615;51.340;8.288;2023-06-19T14:08:54;3.63;;;2.30;;
9160;SDS011;4615;51.340;8.288;2023-06-19T14:11:20;2.30;;;2.10;;
9160;SDS011;4615;51.340;8.288;2023-06-19T14:13:47;2.25;;;2.08;;
9160;SDS011;4615;51.340;8.288;2023-06-19T14:16:15;2.88;;;1.90;;
9160;SDS011;4615;51.340;8.288;2023-06-19T14:18:41;3.88;;;2.33;;
9160;SDS011;4615;51.340;8.288;2023-06-19T14:21:07;2.05;;;1.83;;
9160;SDS011;4615;51.340;8.288;2023-06-19T14:23:34;4.55;;;2.20;;
9160;SDS011;4615;51.340;8.288;2023-06-19T14:26:05;4.65;;;2.35;;
9160;SDS011;4615;51.340;8.288;2023-06-19T14:28:31;3.00;;;1.90;;
9160;SDS011;4615;51.340;8.288;2023-06-19T14:30:58;2.87;;;2.10;;
9160;SDS011;4615;51.340;8.288;2023-06-19T14:33:25;2.33;;;2.10;;
9160;SDS011;4615;51.340;8.288;2023-06-19T14:35:52;2.63;;;2.10;;
9160;SDS011;4615;51.340;8.288;2023-06-19T14:38:18;2.90;;;2.10;;
9160;SDS011;4615;51.340;8.288;2023-06-19T14:40:45;3.87;;;2.10;;
9160;SDS011;4615;51.340;8.288;2023-06-19T14:43:11;2.47;;;2.00;;
9160;SDS011;4615;51.340;8.288;2023-06-19T14:45:41;3.17;;;2.20;;
9160;SDS011;4615;51.340;8.288;2023-06-19T14:48:07;2.45;;;2.10;;
9160;SDS011;4615;51.340;8.288;2023-06-19T14:50:35;2.40;;;2.20;;
9160;SDS011;4615;51.340;8.288;2023-06-19T14:53:02;2.53;;;2.03;;
9160;SDS011;4615;51.340;8.288;2023-06-19T14:55:28;3.10;;;2.13;;
9160;SDS011;4615;51.340;8.288;2023-06-19T14:57:55;2.70;;;2.10;;
9160;SDS011;4615;51.340;8.288;2023-06-19T15:00:21;2.17;;;1.97;;
9160;SDS011;4615;51.340;8.288;2023-06-19T15:02:48;3.42;;;2.17;;
9160;SDS011;4615;51.340;8.288;2023-06-19T15:05:14;2.42;;;2.22;;
9160;SDS011;4615;51.340;8.288;2023-06-19T15:07:42;2.50;;;2.00;;
9160;SDS011;4615;51.340;8.288;2023-06-19T15:10:09;2.30;;;2.10;;
9160;SDS011;4615;51.340;8.288;2023-06-19T15:12:35;4.30;;;2.28;;